sensor_id;sensor_type;location;lat;lon;timestamp;pressure;altitude;pressure_sealevel;temperature;humidity
47166;BME280;32930;51.112;13.762;2023-04-07T00:00:16;99616.78;;;5.00;57.04
47166;BME280;32930;51.112;13.762;2023-04-07T00:02:42;99614.06;;;4.93;57.57
47166;BME280;32930;51.112;13.762;2023-04-07T00:05:08;99611.16;;;4.80;57.89
47166;BME280;32930;51.112;13.762;2023-04-07T00:07:33;99617.66;;;4.72;57.93
47166;BME280;32930;51.112;13.762;2023-04-07T00:09:59;99620.91;;;4.67;57.73
47166;BME280;32930;51.112;13.762;2023-04-07T00:12:24;99603.72;;;4.86;57.62
47166;BME280;32930;51.112;13.762;2023-04-07T00:14:50;99610.13;;;4.74;57.54
47166;BME280;32930;51.112;13.762;2023-04-07T00:19:50;99610.22;;;4.78;57.01
47166;BME280;32930;51.112;13.762;2023-04-07T00:22:16;99612.94;;;4.83;56.30
47166;BME280;32930;51.112;13.762;2023-04-07T00:24:42;99607.03;;;4.55;56.59
47166;BME280;32930;51.112;13.762;2023-04-07T00:27:07;99610.41;;;4.56;56.43
47166;BME280;32930;51.112;13.762;2023-04-07T00:29:33;99607.84;;;4.54;56.53
47166;BME280;32930;51.112;13.762;2023-04-07T00:31:58;99614.56;;;4.54;57.01
47166;BME280;32930;51.112;13.762;2023-04-07T00:34:24;99612.66;;;4.45;57.69
47166;BME280;32930;51.112;13.762;2023-04-07T00:36:50;99613.69;;;4.52;57.73
47166;BME280;32930;51.112;13.762;2023-04-07T00:39:19;99606.81;;;4.48;57.12
47166;BME280;32930;51.112;13.762;2023-04-07T00:41:46;99605.88;;;4.46;57.46
47166;BME280;32930;51.112;13.762;2023-04-07T00:44:12;99603.78;;;4.32;56.82
47166;BME280;32930;51.112;13.762;2023-04-07T00:46:38;99595.44;;;4.36;56.71
47166;BME280;32930;51.112;13.762;2023-04-07T00:51:30;99597.13;;;4.36;57.21
47166;BME280;32930;51.112;13.762;2023-04-07T00:53:56;99596.78;;;4.25;57.87
47166;BME280;32930;51.112;13.762;2023-04-07T01:12:39;99578.69;;;4.14;58.72
47166;BME280;32930;51.112;13.762;2023-04-07T01:15:10;99580.75;;;4.26;59.03
47166;BME280;32930;51.112;13.762;2023-04-07T01:17:42;99579.53;;;4.15;59.17
47166;BME280;32930;51.112;13.762;2023-04-07T01:22:46;99571.91;;;4.15;58.51
47166;BME280;32930;51.112;13.762;2023-04-07T01:32:55;99568.13;;;4.02;59.42
47166;BME280;32930;51.112;13.762;2023-04-07T01:35:23;99567.84;;;4.20;58.84
47166;BME280;32930;51.112;13.762;2023-04-07T01:37:51;99558.25;;;4.10;59.19
47166;BME280;32930;51.112;13.762;2023-04-07T01:40:19;99552.38;;;4.12;58.89
47166;BME280;32930;51.112;13.762;2023-04-07T01:42:47;99557.31;;;4.08;58.86
47166;BME280;32930;51.112;13.762;2023-04-07T01:45:15;99555.91;;;3.90;59.27
47166;BME280;32930;51.112;13.762;2023-04-07T01:47:42;99562.25;;;4.03;59.88
47166;BME280;32930;51.112;13.762;2023-04-07T01:50:10;99560.53;;;4.02;60.03
47166;BME280;32930;51.112;13.762;2023-04-07T01:52:37;99550.94;;;3.93;59.53
47166;BME280;32930;51.112;13.762;2023-04-07T01:55:05;99546.78;;;3.95;59.51
47166;BME280;32930;51.112;13.762;2023-04-07T01:57:31;99552.63;;;3.93;59.81
47166;BME280;32930;51.112;13.762;2023-04-07T01:59:57;99555.72;;;3.84;60.62
47166;BME280;32930;51.112;13.762;2023-04-07T02:02:23;99551.72;;;3.91;60.07
47166;BME280;32930;51.112;13.762;2023-04-07T02:04:54;99549.00;;;3.85;60.33
47166;BME280;32930;51.112;13.762;2023-04-07T02:10:09;99553.97;;;3.82;60.14
47166;BME280;32930;51.112;13.762;2023-04-07T02:20:52;99543.19;;;3.89;59.81
47166;BME280;32930;51.112;13.762;2023-04-07T02:23:18;99548.50;;;3.97;60.45
47166;BME280;32930;51.112;13.762;2023-04-07T02:25:44;99546.38;;;3.83;59.80
47166;BME280;32930;51.112;13.762;2023-04-07T02:28:09;99544.50;;;3.78;59.85
47166;BME280;32930;51.112;13.762;2023-04-07T02:30:35;99546.19;;;3.77;60.48
47166;BME280;32930;51.112;13.762;2023-04-07T02:33:00;99538.53;;;3.76;59.99
47166;BME280;32930;51.112;13.762;2023-04-07T02:41:30;99530.38;;;3.59;60.84
47166;BME280;32930;51.112;13.762;2023-04-07T02:43:55;99532.22;;;3.63;60.72
47166;BME280;32930;51.112;13.762;2023-04-07T02:46:21;99530.56;;;3.65;60.60
47166;BME280;32930;51.112;13.762;2023-04-07T02:48:46;99533.78;;;3.85;60.26
47166;BME280;32930;51.112;13.762;2023-04-07T02:57:04;99521.47;;;3.71;60.18
47166;BME280;32930;51.112;13.762;2023-04-07T02:59:29;99522.88;;;3.62;60.62
47166;BME280;32930;51.112;13.762;2023-04-07T03:01:55;99520.41;;;3.63;61.21
47166;BME280;32930;51.112;13.762;2023-04-07T03:04:20;99525.22;;;3.83;61.02
47166;BME280;32930;51.112;13.762;2023-04-07T03:12:35;99520.72;;;3.74;61.67
47166;BME280;32930;51.112;13.762;2023-04-07T03:15:00;99519.09;;;3.76;61.50
47166;BME280;32930;51.112;13.762;2023-04-07T03:17:26;99520.28;;;3.60;61.32
47166;BME280;32930;51.112;13.762;2023-04-07T03:19:51;99515.22;;;3.60;60.83
47166;BME280;32930;51.112;13.762;2023-04-07T03:22:17;99519.38;;;3.58;60.94
47166;BME280;32930;51.112;13.762;2023-04-07T03:24:42;99514.41;;;3.61;60.61
47166;BME280;32930;51.112;13.762;2023-04-07T03:27:08;99514.19;;;3.55;60.36
47166;BME280;32930;51.112;13.762;2023-04-07T03:29:33;99509.09;;;3.54;61.17
47166;BME280;32930;51.112;13.762;2023-04-07T03:31:59;99504.59;;;3.46;61.13
47166;BME280;32930;51.112;13.762;2023-04-07T03:34:24;99503.94;;;3.52;61.82
47166;BME280;32930;51.112;13.762;2023-04-07T03:36:50;99505.41;;;3.44;61.54
47166;BME280;32930;51.112;13.762;2023-04-07T03:39:15;99502.28;;;3.53;60.90
47166;BME280;32930;51.112;13.762;2023-04-07T03:41:41;99500.78;;;3.59;60.86
47166;BME280;32930;51.112;13.762;2023-04-07T03:44:06;99503.84;;;3.49;62.06
47166;BME280;32930;51.112;13.762;2023-04-07T03:46:32;99493.91;;;3.55;61.21
47166;BME280;32930;51.112;13.762;2023-04-07T03:48:57;99500.31;;;3.44;61.07
47166;BME280;32930;51.112;13.762;2023-04-07T03:51:23;99499.84;;;3.56;61.66
47166;BME280;32930;51.112;13.762;2023-04-07T04:19:58;99505.00;;;3.32;61.54
47166;BME280;32930;51.112;13.762;2023-04-07T04:22:23;99509.78;;;3.24;61.94
47166;BME280;32930;51.112;13.762;2023-04-07T04:24:49;99505.97;;;3.37;62.06
47166;BME280;32930;51.112;13.762;2023-04-07T04:27:14;99509.75;;;3.22;62.31
47166;BME280;32930;51.112;13.762;2023-04-07T04:29:40;99509.97;;;3.29;62.42
47166;BME280;32930;51.112;13.762;2023-04-07T04:32:06;99514.28;;;3.31;61.95
47166;BME280;32930;51.112;13.762;2023-04-07T04:34:31;99513.97;;;3.22;63.16
47166;BME280;32930;51.112;13.762;2023-04-07T04:36:57;99514.28;;;3.31;62.62
47166;BME280;32930;51.112;13.762;2023-04-07T04:39:22;99520.09;;;3.29;61.88
47166;BME280;32930;51.112;13.762;2023-04-07T04:41:48;99517.13;;;3.16;62.65
47166;BME280;32930;51.112;13.762;2023-04-07T04:44:13;99510.41;;;3.17;62.51
47166;BME280;32930;51.112;13.762;2023-04-07T04:46:38;99513.16;;;3.24;62.31
47166;BME280;32930;51.112;13.762;2023-04-07T04:49:04;99516.53;;;3.23;62.29
